Rock Creek, California
Current Conditions -  °F | °C
As of 10:55 PM on Friday 24 Oct 2014 (Local Time) from KCIC Reporting Station
Overcast Overcast  
Wind Chill: 66°   Ceiling: 5000
Heat Index: 66°   Visibility: 10mi
Dew Point: 50°   Wind: 17mph
Humidity: 56%   Direction: 140°SE
Pressure: 29.84"   Gusts: 24mph
Location:  39.9071°N, 121.345°W
Report Text: KCIC 250555Z AUTO 14015G21KT 10SM OVC050 19/10 A2984 RMK AO1
Loading
Personal Weather Stations






























Interactive Weather Map
Tropical Storm Tracking
New forecast layout! Learn more

10-Day Weather Forecast

Advertisements
Track Severe Weather on mobile